sensor_id;sensor_type;location;lat;lon;timestamp;P1;durP1;ratioP1;P2;durP2;ratioP2
59766;SDS011;46248;58.364;25.582;2023-12-20T00:03:00;8.90;;;1.27;;
59766;SDS011;46248;58.364;25.582;2023-12-20T00:06:23;6.60;;;1.15;;
59766;SDS011;46248;58.364;25.582;2023-12-20T00:09:46;8.60;;;1.50;;
59766;SDS011;46248;58.364;25.582;2023-12-20T00:13:09;6.30;;;1.80;;
59766;SDS011;46248;58.364;25.582;2023-12-20T00:16:34;8.20;;;1.98;;
59766;SDS011;46248;58.364;25.582;2023-12-20T00:19:56;9.20;;;1.48;;
59766;SDS011;46248;58.364;25.582;2023-12-20T00:23:19;7.75;;;1.90;;
59766;SDS011;46248;58.364;25.582;2023-12-20T00:26:44;7.05;;;1.73;;
59766;SDS011;46248;58.364;25.582;2023-12-20T00:30:08;5.47;;;1.20;;
59766;SDS011;46248;58.364;25.582;2023-12-20T00:33:33;4.05;;;1.65;;
59766;SDS011;46248;58.364;25.582;2023-12-20T00:36:56;4.97;;;1.48;;
59766;SDS011;46248;58.364;25.582;2023-12-20T00:40:19;9.63;;;1.08;;
59766;SDS011;46248;58.364;25.582;2023-12-20T00:43:43;4.85;;;1.45;;
59766;SDS011;46248;58.364;25.582;2023-12-20T00:47:05;3.55;;;1.23;;
59766;SDS011;46248;58.364;25.582;2023-12-20T00:50:29;11.27;;;1.80;;
59766;SDS011;46248;58.364;25.582;2023-12-20T00:53:52;2.75;;;0.80;;
59766;SDS011;46248;58.364;25.582;2023-12-20T00:57:16;2.65;;;0.82;;
59766;SDS011;46248;58.364;25.582;2023-12-20T01:00:39;10.48;;;1.80;;
59766;SDS011;46248;58.364;25.582;2023-12-20T01:04:04;7.28;;;1.23;;
59766;SDS011;46248;58.364;25.582;2023-12-20T01:07:28;6.32;;;0.75;;
59766;SDS011;46248;58.364;25.582;2023-12-20T01:10:51;8.23;;;1.15;;
59766;SDS011;46248;58.364;25.582;2023-12-20T01:14:14;6.10;;;0.98;;
59766;SDS011;46248;58.364;25.582;2023-12-20T01:17:37;5.38;;;1.33;;
59766;SDS011;46248;58.364;25.582;2023-12-20T01:21:01;10.95;;;1.17;;
59766;SDS011;46248;58.364;25.582;2023-12-20T01:24:26;5.60;;;0.90;;
59766;SDS011;46248;58.364;25.582;2023-12-20T01:27:48;9.85;;;1.00;;
59766;SDS011;46248;58.364;25.582;2023-12-20T01:31:11;4.05;;;0.65;;
59766;SDS011;46248;58.364;25.582;2023-12-20T01:34:34;6.20;;;2.03;;
59766;SDS011;46248;58.364;25.582;2023-12-20T01:37:57;6.07;;;1.10;;
59766;SDS011;46248;58.364;25.582;2023-12-20T01:41:22;3.13;;;0.90;;
59766;SDS011;46248;58.364;25.582;2023-12-20T01:44:44;7.47;;;1.17;;
59766;SDS011;46248;58.364;25.582;2023-12-20T01:48:08;3.53;;;0.68;;
59766;SDS011;46248;58.364;25.582;2023-12-20T01:51:32;7.70;;;1.10;;
59766;SDS011;46248;58.364;25.582;2023-12-20T01:54:55;5.38;;;0.80;;
59766;SDS011;46248;58.364;25.582;2023-12-20T01:58:25;4.78;;;0.90;;
59766;SDS011;46248;58.364;25.582;2023-12-20T02:01:48;6.38;;;1.38;;
59766;SDS011;46248;58.364;25.582;2023-12-20T02:05:14;4.88;;;1.08;;
59766;SDS011;46248;58.364;25.582;2023-12-20T02:08:38;7.72;;;1.75;;
59766;SDS011;46248;58.364;25.582;2023-12-20T02:12:01;12.52;;;1.55;;
59766;SDS011;46248;58.364;25.582;2023-12-20T02:15:25;9.02;;;1.55;;
59766;SDS011;46248;58.364;25.582;2023-12-20T02:18:48;7.47;;;1.77;;
59766;SDS011;46248;58.364;25.582;2023-12-20T02:22:12;6.65;;;0.88;;
59766;SDS011;46248;58.364;25.582;2023-12-20T02:25:35;18.17;;;2.28;;
59766;SDS011;46248;58.364;25.582;2023-12-20T02:28:58;6.70;;;1.30;;
59766;SDS011;46248;58.364;25.582;2023-12-20T02:32:21;6.95;;;1.23;;
59766;SDS011;46248;58.364;25.582;2023-12-20T02:35:46;3.28;;;1.02;;
59766;SDS011;46248;58.364;25.582;2023-12-20T02:39:10;5.55;;;1.52;;
59766;SDS011;46248;58.364;25.582;2023-12-20T02:42:33;6.03;;;1.30;;
59766;SDS011;46248;58.364;25.582;2023-12-20T02:45:56;3.47;;;1.17;;
59766;SDS011;46248;58.364;25.582;2023-12-20T02:49:19;5.65;;;1.15;;
59766;SDS011;46248;58.364;25.582;2023-12-20T02:52:44;11.73;;;1.58;;
59766;SDS011;46248;58.364;25.582;2023-12-20T02:56:08;5.47;;;1.05;;
59766;SDS011;46248;58.364;25.582;2023-12-20T02:59:31;10.43;;;1.45;;
59766;SDS011;46248;58.364;25.582;2023-12-20T03:02:54;8.50;;;1.30;;
59766;SDS011;46248;58.364;25.582;2023-12-20T03:06:17;9.80;;;1.52;;
59766;SDS011;46248;58.364;25.582;2023-12-20T03:09:41;4.50;;;1.17;;
59766;SDS011;46248;58.364;25.582;2023-12-20T03:13:26;4.25;;;1.33;;
59766;SDS011;46248;58.364;25.582;2023-12-20T03:16:49;10.52;;;1.70;;
59766;SDS011;46248;58.364;25.582;2023-12-20T03:20:12;5.07;;;1.15;;
59766;SDS011;46248;58.364;25.582;2023-12-20T03:23:35;7.63;;;1.55;;
59766;SDS011;46248;58.364;25.582;2023-12-20T03:26:58;10.25;;;1.60;;
59766;SDS011;46248;58.364;25.582;2023-12-20T03:30:22;10.73;;;1.70;;
59766;SDS011;46248;58.364;25.582;2023-12-20T03:33:45;7.95;;;1.92;;
59766;SDS011;46248;58.364;25.582;2023-12-20T03:37:08;12.63;;;2.05;;
59766;SDS011;46248;58.364;25.582;2023-12-20T03:40:32;7.97;;;1.48;;
59766;SDS011;46248;58.364;25.582;2023-12-20T03:43:55;5.28;;;1.83;;
59766;SDS011;46248;58.364;25.582;2023-12-20T03:47:19;13.35;;;2.38;;
59766;SDS011;46248;58.364;25.582;2023-12-20T03:50:42;9.75;;;1.42;;
59766;SDS011;46248;58.364;25.582;2023-12-20T03:54:05;9.90;;;1.80;;
59766;SDS011;46248;58.364;25.582;2023-12-20T03:57:28;7.00;;;1.55;;
59766;SDS011;46248;58.364;25.582;2023-12-20T04:00:51;15.10;;;1.50;;
59766;SDS011;46248;58.364;25.582;2023-12-20T04:04:15;18.27;;;2.88;;
59766;SDS011;46248;58.364;25.582;2023-12-20T04:07:39;11.57;;;1.80;;
59766;SDS011;46248;58.364;25.582;2023-12-20T04:11:02;9.93;;;2.13;;
59766;SDS011;46248;58.364;25.582;2023-12-20T04:14:25;7.50;;;1.67;;
59766;SDS011;46248;58.364;25.582;2023-12-20T04:17:47;5.75;;;0.88;;
59766;SDS011;46248;58.364;25.582;2023-12-20T04:21:12;9.15;;;1.52;;
59766;SDS011;46248;58.364;25.582;2023-12-20T04:24:35;11.07;;;1.40;;
59766;SDS011;46248;58.364;25.582;2023-12-20T04:27:58;9.07;;;1.70;;
59766;SDS011;46248;58.364;25.582;2023-12-20T04:31:21;12.93;;;2.60;;
59766;SDS011;46248;58.364;25.582;2023-12-20T04:34:44;8.07;;;1.65;;
59766;SDS011;46248;58.364;25.582;2023-12-20T04:38:09;11.93;;;1.92;;
59766;SDS011;46248;58.364;25.582;2023-12-20T04:41:31;8.55;;;3.00;;
59766;SDS011;46248;58.364;25.582;2023-12-20T04:44:54;15.60;;;2.28;;
59766;SDS011;46248;58.364;25.582;2023-12-20T04:48:17;9.68;;;2.05;;
59766;SDS011;46248;58.364;25.582;2023-12-20T04:51:40;13.65;;;3.08;;
59766;SDS011;46248;58.364;25.582;2023-12-20T04:55:04;11.85;;;1.48;;
59766;SDS011;46248;58.364;25.582;2023-12-20T04:58:27;9.25;;;1.88;;
59766;SDS011;46248;58.364;25.582;2023-12-20T05:01:50;15.90;;;2.85;;
59766;SDS011;46248;58.364;25.582;2023-12-20T05:05:13;7.45;;;2.13;;
59766;SDS011;46248;58.364;25.582;2023-12-20T05:08:38;10.40;;;2.60;;
59766;SDS011;46248;58.364;25.582;2023-12-20T05:12:02;7.40;;;1.70;;
59766;SDS011;46248;58.364;25.582;2023-12-20T05:15:25;9.32;;;2.08;;
59766;SDS011;46248;58.364;25.582;2023-12-20T05:18:48;6.93;;;1.20;;
59766;SDS011;46248;58.364;25.582;2023-12-20T05:22:13;3.55;;;1.50;;
59766;SDS011;46248;58.364;25.582;2023-12-20T05:25:36;14.20;;;1.92;;
59766;SDS011;46248;58.364;25.582;2023-12-20T05:29:00;5.57;;;1.83;;
59766;SDS011;46248;58.364;25.582;2023-12-20T05:32:22;11.65;;;2.15;;
59766;SDS011;46248;58.364;25.582;2023-12-20T05:35:45;9.55;;;2.83;;
59766;SDS011;46248;58.364;25.582;2023-12-20T05:39:08;15.18;;;2.97;;
59766;SDS011;46248;58.364;25.582;2023-12-20T05:42:31;7.05;;;2.95;;
59766;SDS011;46248;58.364;25.582;2023-12-20T05:45:56;23.98;;;6.93;;
59766;SDS011;46248;58.364;25.582;2023-12-20T05:49:18;20.42;;;6.35;;
59766;SDS011;46248;58.364;25.582;2023-12-20T05:52:42;26.77;;;8.73;;
59766;SDS011;46248;58.364;25.582;2023-12-20T05:56:05;24.73;;;5.88;;
59766;SDS011;46248;58.364;25.582;2023-12-20T05:59:28;37.75;;;11.90;;
59766;SDS011;46248;58.364;25.582;2023-12-20T06:02:52;14.55;;;4.40;;
59766;SDS011;46248;58.364;25.582;2023-12-20T06:06:15;11.95;;;3.22;;
59766;SDS011;46248;58.364;25.582;2023-12-20T06:09:38;7.00;;;2.60;;
59766;SDS011;46248;58.364;25.582;2023-12-20T06:13:01;8.43;;;3.08;;
59766;SDS011;46248;58.364;25.582;2023-12-20T06:16:25;10.38;;;3.15;;
59766;SDS011;46248;58.364;25.582;2023-12-20T06:19:50;9.55;;;1.67;;
59766;SDS011;46248;58.364;25.582;2023-12-20T06:23:13;10.77;;;2.40;;
59766;SDS011;46248;58.364;25.582;2023-12-20T06:26:36;9.68;;;2.35;;
59766;SDS011;46248;58.364;25.582;2023-12-20T06:29:59;11.10;;;3.15;;
59766;SDS011;46248;58.364;25.582;2023-12-20T06:33:22;23.92;;;4.47;;
59766;SDS011;46248;58.364;25.582;2023-12-20T06:36:47;15.70;;;3.90;;
59766;SDS011;46248;58.364;25.582;2023-12-20T06:40:10;11.73;;;4.65;;
59766;SDS011;46248;58.364;25.582;2023-12-20T06:43:37;8.52;;;2.20;;
59766;SDS011;46248;58.364;25.582;2023-12-20T06:47:09;12.35;;;3.75;;
59766;SDS011;46248;58.364;25.582;2023-12-20T06:50:32;7.00;;;3.60;;
59766;SDS011;46248;58.364;25.582;2023-12-20T06:53:56;12.25;;;3.72;;
59766;SDS011;46248;58.364;25.582;2023-12-20T06:57:19;8.02;;;2.25;;
59766;SDS011;46248;58.364;25.582;2023-12-20T07:00:42;5.70;;;2.33;;
59766;SDS011;46248;58.364;25.582;2023-12-20T07:04:05;8.80;;;2.75;;
59766;SDS011;46248;58.364;25.582;2023-12-20T07:07:29;10.13;;;2.47;;
59766;SDS011;46248;58.364;25.582;2023-12-20T07:10:54;11.57;;;2.95;;
59766;SDS011;46248;58.364;25.582;2023-12-20T07:14:16;4.97;;;2.83;;
59766;SDS011;46248;58.364;25.582;2023-12-20T07:17:39;12.93;;;2.58;;
59766;SDS011;46248;58.364;25.582;2023-12-20T07:21:03;8.43;;;3.08;;
59766;SDS011;46248;58.364;25.582;2023-12-20T07:24:28;13.82;;;3.50;;
59766;SDS011;46248;58.364;25.582;2023-12-20T07:27:53;9.15;;;3.15;;
59766;SDS011;46248;58.364;25.582;2023-12-20T07:31:16;11.52;;;2.75;;
59766;SDS011;46248;58.364;25.582;2023-12-20T07:34:38;12.27;;;3.72;;
59766;SDS011;46248;58.364;25.582;2023-12-20T07:38:01;11.30;;;3.00;;
59766;SDS011;46248;58.364;25.582;2023-12-20T07:41:24;15.25;;;4.00;;
59766;SDS011;46248;58.364;25.582;2023-12-20T07:44:48;15.68;;;4.32;;
59766;SDS011;46248;58.364;25.582;2023-12-20T07:48:11;15.73;;;3.53;;
59766;SDS011;46248;58.364;25.582;2023-12-20T07:51:34;41.33;;;11.52;;
59766;SDS011;46248;58.364;25.582;2023-12-20T07:54:57;36.40;;;10.43;;
59766;SDS011;46248;58.364;25.582;2023-12-20T07:58:20;16.40;;;4.57;;
59766;SDS011;46248;58.364;25.582;2023-12-20T08:01:57;9.02;;;2.42;;
59766;SDS011;46248;58.364;25.582;2023-12-20T08:05:21;7.32;;;2.75;;
59766;SDS011;46248;58.364;25.582;2023-12-20T08:08:44;3.25;;;2.03;;
59766;SDS011;46248;58.364;25.582;2023-12-20T08:12:20;9.18;;;3.05;;
59766;SDS011;46248;58.364;25.582;2023-12-20T08:15:43;12.13;;;3.13;;
59766;SDS011;46248;58.364;25.582;2023-12-20T08:19:08;13.75;;;2.45;;
59766;SDS011;46248;58.364;25.582;2023-12-20T08:22:31;10.18;;;2.60;;
59766;SDS011;46248;58.364;25.582;2023-12-20T08:25:55;14.70;;;3.00;;
59766;SDS011;46248;58.364;25.582;2023-12-20T08:29:18;10.57;;;3.35;;
59766;SDS011;46248;58.364;25.582;2023-12-20T08:32:41;10.30;;;2.55;;
59766;SDS011;46248;58.364;25.582;2023-12-20T08:36:06;15.73;;;2.55;;
59766;SDS011;46248;58.364;25.582;2023-12-20T08:39:30;13.45;;;2.95;;
59766;SDS011;46248;58.364;25.582;2023-12-20T08:42:54;6.68;;;1.60;;
59766;SDS011;46248;58.364;25.582;2023-12-20T08:46:17;12.18;;;2.90;;
59766;SDS011;46248;58.364;25.582;2023-12-20T08:49:40;8.05;;;3.00;;
59766;SDS011;46248;58.364;25.582;2023-12-20T08:53:04;10.48;;;2.90;;
59766;SDS011;46248;58.364;25.582;2023-12-20T08:56:27;6.85;;;2.38;;
59766;SDS011;46248;58.364;25.582;2023-12-20T08:59:50;12.23;;;2.53;;
59766;SDS011;46248;58.364;25.582;2023-12-20T09:03:13;10.20;;;3.00;;
59766;SDS011;46248;58.364;25.582;2023-12-20T09:06:36;8.23;;;3.38;;
59766;SDS011;46248;58.364;25.582;2023-12-20T09:10:01;10.90;;;3.25;;
59766;SDS011;46248;58.364;25.582;2023-12-20T09:13:24;11.05;;;2.40;;
59766;SDS011;46248;58.364;25.582;2023-12-20T09:16:49;7.55;;;2.22;;
59766;SDS011;46248;58.364;25.582;2023-12-20T09:20:12;6.43;;;1.95;;
59766;SDS011;46248;58.364;25.582;2023-12-20T09:23:35;13.85;;;2.45;;
59766;SDS011;46248;58.364;25.582;2023-12-20T09:27:00;8.43;;;2.50;;
59766;SDS011;46248;58.364;25.582;2023-12-20T09:30:23;7.07;;;2.35;;
59766;SDS011;46248;58.364;25.582;2023-12-20T09:33:47;9.52;;;2.13;;
59766;SDS011;46248;58.364;25.582;2023-12-20T09:37:10;8.73;;;1.95;;
59766;SDS011;46248;58.364;25.582;2023-12-20T09:40:33;9.75;;;2.33;;
59766;SDS011;46248;58.364;25.582;2023-12-20T09:43:59;10.88;;;2.40;;
59766;SDS011;46248;58.364;25.582;2023-12-20T09:47:25;12.77;;;3.20;;
59766;SDS011;46248;58.364;25.582;2023-12-20T09:50:48;17.13;;;4.07;;
59766;SDS011;46248;58.364;25.582;2023-12-20T09:54:14;10.10;;;2.42;;
59766;SDS011;46248;58.364;25.582;2023-12-20T09:57:37;8.40;;;2.70;;
59766;SDS011;46248;58.364;25.582;2023-12-20T10:01:03;8.60;;;2.55;;
59766;SDS011;46248;58.364;25.582;2023-12-20T10:04:27;12.07;;;2.88;;
59766;SDS011;46248;58.364;25.582;2023-12-20T10:07:52;7.28;;;1.80;;
59766;SDS011;46248;58.364;25.582;2023-12-20T10:11:15;9.40;;;2.90;;
59766;SDS011;46248;58.364;25.582;2023-12-20T10:14:38;3.65;;;1.20;;
59766;SDS011;46248;58.364;25.582;2023-12-20T10:22:50;20.05;;;5.13;;
59766;SDS011;46248;58.364;25.582;2023-12-20T10:26:18;20.70;;;3.67;;
59766;SDS011;46248;58.364;25.582;2023-12-20T10:29:42;19.63;;;4.50;;
59766;SDS011;46248;58.364;25.582;2023-12-20T10:33:05;21.27;;;3.75;;
59766;SDS011;46248;58.364;25.582;2023-12-20T10:36:29;7.93;;;2.53;;
59766;SDS011;46248;58.364;25.582;2023-12-20T10:39:54;13.40;;;2.15;;
59766;SDS011;46248;58.364;25.582;2023-12-20T10:43:18;3.22;;;1.92;;
59766;SDS011;46248;58.364;25.582;2023-12-20T10:46:42;6.72;;;2.08;;
59766;SDS011;46248;58.364;25.582;2023-12-20T10:53:34;10.50;;;1.98;;
59766;SDS011;46248;58.364;25.582;2023-12-20T10:57:00;9.40;;;2.42;;
59766;SDS011;46248;58.364;25.582;2023-12-20T11:00:25;5.68;;;1.52;;
59766;SDS011;46248;58.364;25.582;2023-12-20T11:03:48;6.53;;;2.03;;
59766;SDS011;46248;58.364;25.582;2023-12-20T11:07:16;14.50;;;3.80;;
59766;SDS011;46248;58.364;25.582;2023-12-20T11:10:45;10.93;;;3.70;;
59766;SDS011;46248;58.364;25.582;2023-12-20T11:14:17;4.93;;;2.42;;
59766;SDS011;46248;58.364;25.582;2023-12-20T11:17:45;15.90;;;4.93;;
59766;SDS011;46248;58.364;25.582;2023-12-20T11:21:11;14.73;;;3.60;;
59766;SDS011;46248;58.364;25.582;2023-12-20T11:24:34;7.10;;;3.55;;
59766;SDS011;46248;58.364;25.582;2023-12-20T11:28:07;7.15;;;3.00;;
59766;SDS011;46248;58.364;25.582;2023-12-20T11:31:36;7.28;;;2.65;;
59766;SDS011;46248;58.364;25.582;2023-12-20T11:35:17;6.03;;;2.35;;
59766;SDS011;46248;58.364;25.582;2023-12-20T11:38:49;12.13;;;2.97;;
59766;SDS011;46248;58.364;25.582;2023-12-20T11:42:19;10.13;;;4.18;;
59766;SDS011;46248;58.364;25.582;2023-12-20T11:45:47;12.05;;;4.43;;
59766;SDS011;46248;58.364;25.582;2023-12-20T11:49:14;12.60;;;5.47;;
59766;SDS011;46248;58.364;25.582;2023-12-20T11:52:37;8.07;;;4.10;;
59766;SDS011;46248;58.364;25.582;2023-12-20T11:56:00;6.15;;;2.58;;
59766;SDS011;46248;58.364;25.582;2023-12-20T11:59:23;10.60;;;2.53;;
59766;SDS011;46248;58.364;25.582;2023-12-20T12:02:56;8.90;;;2.35;;
59766;SDS011;46248;58.364;25.582;2023-12-20T12:06:24;3.08;;;1.20;;
59766;SDS011;46248;58.364;25.582;2023-12-20T12:09:46;3.35;;;1.90;;
59766;SDS011;46248;58.364;25.582;2023-12-20T12:13:10;4.25;;;1.88;;
59766;SDS011;46248;58.364;25.582;2023-12-20T12:16:34;4.57;;;1.80;;
59766;SDS011;46248;58.364;25.582;2023-12-20T12:20:01;7.22;;;1.88;;
59766;SDS011;46248;58.364;25.582;2023-12-20T12:23:28;4.88;;;2.15;;
59766;SDS011;46248;58.364;25.582;2023-12-20T12:26:50;4.38;;;2.10;;
59766;SDS011;46248;58.364;25.582;2023-12-20T12:30:15;6.40;;;1.63;;
59766;SDS011;46248;58.364;25.582;2023-12-20T12:33:38;8.95;;;2.10;;
59766;SDS011;46248;58.364;25.582;2023-12-20T12:37:04;5.25;;;2.25;;
59766;SDS011;46248;58.364;25.582;2023-12-20T12:40:29;2.33;;;1.55;;
59766;SDS011;46248;58.364;25.582;2023-12-20T12:43:52;5.70;;;2.10;;
59766;SDS011;46248;58.364;25.582;2023-12-20T12:47:18;5.07;;;2.95;;
59766;SDS011;46248;58.364;25.582;2023-12-20T12:50:41;5.88;;;2.22;;
59766;SDS011;46248;58.364;25.582;2023-12-20T12:54:04;7.03;;;3.10;;
59766;SDS011;46248;58.364;25.582;2023-12-20T12:57:28;6.25;;;3.65;;
59766;SDS011;46248;58.364;25.582;2023-12-20T13:00:51;8.30;;;4.10;;
59766;SDS011;46248;58.364;25.582;2023-12-20T13:04:14;5.60;;;4.22;;
59766;SDS011;46248;58.364;25.582;2023-12-20T13:07:37;13.02;;;6.72;;
59766;SDS011;46248;58.364;25.582;2023-12-20T13:11:01;15.10;;;8.05;;
59766;SDS011;46248;58.364;25.582;2023-12-20T13:14:26;15.07;;;8.18;;
59766;SDS011;46248;58.364;25.582;2023-12-20T13:17:50;16.25;;;7.72;;
59766;SDS011;46248;58.364;25.582;2023-12-20T13:21:13;8.38;;;5.25;;
59766;SDS011;46248;58.364;25.582;2023-12-20T13:24:36;7.03;;;3.70;;
59766;SDS011;46248;58.364;25.582;2023-12-20T13:27:59;6.30;;;3.03;;
59766;SDS011;46248;58.364;25.582;2023-12-20T13:31:24;5.65;;;2.47;;
59766;SDS011;46248;58.364;25.582;2023-12-20T13:34:48;8.77;;;3.47;;
59766;SDS011;46248;58.364;25.582;2023-12-20T13:38:12;13.70;;;5.07;;
59766;SDS011;46248;58.364;25.582;2023-12-20T13:41:35;6.28;;;2.42;;
59766;SDS011;46248;58.364;25.582;2023-12-20T13:44:58;5.65;;;1.50;;
59766;SDS011;46248;58.364;25.582;2023-12-20T13:48:23;8.40;;;2.13;;
59766;SDS011;46248;58.364;25.582;2023-12-20T13:51:46;4.05;;;2.17;;
59766;SDS011;46248;58.364;25.582;2023-12-20T13:55:09;6.45;;;2.80;;
59766;SDS011;46248;58.364;25.582;2023-12-20T13:58:31;7.55;;;3.25;;
59766;SDS011;46248;58.364;25.582;2023-12-20T14:01:57;6.30;;;2.92;;
59766;SDS011;46248;58.364;25.582;2023-12-20T14:05:23;12.35;;;4.63;;
59766;SDS011;46248;58.364;25.582;2023-12-20T14:08:49;12.45;;;5.32;;
59766;SDS011;46248;58.364;25.582;2023-12-20T14:12:12;16.70;;;5.88;;
59766;SDS011;46248;58.364;25.582;2023-12-20T14:15:35;19.88;;;7.88;;
59766;SDS011;46248;58.364;25.582;2023-12-20T14:18:58;18.33;;;6.35;;
59766;SDS011;46248;58.364;25.582;2023-12-20T14:22:22;18.08;;;9.05;;
59766;SDS011;46248;58.364;25.582;2023-12-20T14:25:46;16.08;;;7.15;;
59766;SDS011;46248;58.364;25.582;2023-12-20T14:29:12;62.53;;;25.75;;
59766;SDS011;46248;58.364;25.582;2023-12-20T14:32:35;53.80;;;23.42;;
59766;SDS011;46248;58.364;25.582;2023-12-20T14:35:59;18.98;;;9.65;;
59766;SDS011;46248;58.364;25.582;2023-12-20T14:39:25;12.65;;;6.72;;
59766;SDS011;46248;58.364;25.582;2023-12-20T14:42:48;10.82;;;6.72;;
59766;SDS011;46248;58.364;25.582;2023-12-20T14:46:11;10.73;;;4.30;;
59766;SDS011;46248;58.364;25.582;2023-12-20T14:49:33;9.93;;;4.38;;
59766;SDS011;46248;58.364;25.582;2023-12-20T14:52:58;7.75;;;4.88;;
59766;SDS011;46248;58.364;25.582;2023-12-20T14:56:24;7.55;;;4.25;;
59766;SDS011;46248;58.364;25.582;2023-12-20T14:59:47;11.10;;;5.38;;
59766;SDS011;46248;58.364;25.582;2023-12-20T15:03:10;10.90;;;4.72;;
59766;SDS011;46248;58.364;25.582;2023-12-20T15:06:33;8.25;;;4.45;;
59766;SDS011;46248;58.364;25.582;2023-12-20T15:09:56;5.82;;;3.17;;
59766;SDS011;46248;58.364;25.582;2023-12-20T15:13:20;5.82;;;2.88;;
59766;SDS011;46248;58.364;25.582;2023-12-20T15:16:43;6.13;;;2.60;;
59766;SDS011;46248;58.364;25.582;2023-12-20T15:20:06;9.18;;;2.75;;
59766;SDS011;46248;58.364;25.582;2023-12-20T15:23:31;8.00;;;2.92;;
59766;SDS011;46248;58.364;25.582;2023-12-20T15:26:54;10.07;;;3.42;;
59766;SDS011;46248;58.364;25.582;2023-12-20T15:30:18;9.57;;;4.97;;
59766;SDS011;46248;58.364;25.582;2023-12-20T15:33:41;12.95;;;4.47;;
59766;SDS011;46248;58.364;25.582;2023-12-20T15:37:04;13.38;;;6.32;;
59766;SDS011;46248;58.364;25.582;2023-12-20T15:40:27;11.90;;;4.05;;
59766;SDS011;46248;58.364;25.582;2023-12-20T15:43:50;10.43;;;3.10;;
59766;SDS011;46248;58.364;25.582;2023-12-20T15:47:15;4.38;;;2.08;;
59766;SDS011;46248;58.364;25.582;2023-12-20T15:50:37;8.73;;;2.92;;
59766;SDS011;46248;58.364;25.582;2023-12-20T15:54:00;7.85;;;3.65;;
59766;SDS011;46248;58.364;25.582;2023-12-20T15:57:26;12.68;;;5.25;;
59766;SDS011;46248;58.364;25.582;2023-12-20T16:01:08;14.93;;;7.13;;
59766;SDS011;46248;58.364;25.582;2023-12-20T16:04:32;16.05;;;5.82;;
59766;SDS011;46248;58.364;25.582;2023-12-20T16:07:55;16.80;;;6.88;;
59766;SDS011;46248;58.364;25.582;2023-12-20T16:11:18;19.00;;;5.65;;
59766;SDS011;46248;58.364;25.582;2023-12-20T16:14:41;7.43;;;5.32;;
59766;SDS011;46248;58.364;25.582;2023-12-20T16:18:04;14.38;;;4.90;;
59766;SDS011;46248;58.364;25.582;2023-12-20T16:21:30;16.98;;;7.07;;
59766;SDS011;46248;58.364;25.582;2023-12-20T16:24:53;17.13;;;10.25;;
59766;SDS011;46248;58.364;25.582;2023-12-20T16:28:16;16.67;;;9.88;;
59766;SDS011;46248;58.364;25.582;2023-12-20T16:31:39;11.93;;;5.38;;
59766;SDS011;46248;58.364;25.582;2023-12-20T16:35:02;11.10;;;6.07;;
59766;SDS011;46248;58.364;25.582;2023-12-20T16:38:27;18.05;;;11.38;;
59766;SDS011;46248;58.364;25.582;2023-12-20T16:41:50;11.18;;;6.18;;
59766;SDS011;46248;58.364;25.582;2023-12-20T16:45:12;13.45;;;6.15;;
59766;SDS011;46248;58.364;25.582;2023-12-20T16:48:35;12.75;;;7.07;;
59766;SDS011;46248;58.364;25.582;2023-12-20T16:51:58;18.13;;;6.03;;
59766;SDS011;46248;58.364;25.582;2023-12-20T16:55:26;17.63;;;11.38;;
59766;SDS011;46248;58.364;25.582;2023-12-20T16:58:49;16.20;;;8.88;;
59766;SDS011;46248;58.364;25.582;2023-12-20T17:02:12;16.75;;;6.95;;
59766;SDS011;46248;58.364;25.582;2023-12-20T17:05:35;14.05;;;5.30;;
59766;SDS011;46248;58.364;25.582;2023-12-20T17:08:58;12.35;;;5.63;;
59766;SDS011;46248;58.364;25.582;2023-12-20T17:12:22;10.65;;;4.10;;
59766;SDS011;46248;58.364;25.582;2023-12-20T17:15:45;16.58;;;4.18;;
59766;SDS011;46248;58.364;25.582;2023-12-20T17:19:10;8.25;;;3.60;;
59766;SDS011;46248;58.364;25.582;2023-12-20T17:22:32;7.65;;;3.45;;
59766;SDS011;46248;58.364;25.582;2023-12-20T17:25:56;10.20;;;3.50;;
59766;SDS011;46248;58.364;25.582;2023-12-20T17:29:20;8.60;;;3.35;;
59766;SDS011;46248;58.364;25.582;2023-12-20T17:32:43;11.07;;;5.38;;
59766;SDS011;46248;58.364;25.582;2023-12-20T17:36:10;10.95;;;4.82;;
59766;SDS011;46248;58.364;25.582;2023-12-20T17:39:35;10.02;;;5.63;;
59766;SDS011;46248;58.364;25.582;2023-12-20T17:42:57;11.50;;;4.85;;
59766;SDS011;46248;58.364;25.582;2023-12-20T17:46:21;10.48;;;6.95;;
59766;SDS011;46248;58.364;25.582;2023-12-20T17:49:44;24.50;;;8.70;;
59766;SDS011;46248;58.364;25.582;2023-12-20T17:53:07;29.58;;;12.63;;
59766;SDS011;46248;58.364;25.582;2023-12-20T17:56:30;62.00;;;30.38;;
59766;SDS011;46248;58.364;25.582;2023-12-20T17:59:53;31.88;;;20.42;;
59766;SDS011;46248;58.364;25.582;2023-12-20T18:03:17;49.13;;;24.50;;
59766;SDS011;46248;58.364;25.582;2023-12-20T18:06:40;25.55;;;14.35;;
59766;SDS011;46248;58.364;25.582;2023-12-20T18:10:03;21.52;;;14.88;;
59766;SDS011;46248;58.364;25.582;2023-12-20T18:13:26;22.92;;;13.95;;
59766;SDS011;46248;58.364;25.582;2023-12-20T18:16:49;22.38;;;12.57;;
59766;SDS011;46248;58.364;25.582;2023-12-20T18:20:14;20.38;;;12.07;;
59766;SDS011;46248;58.364;25.582;2023-12-20T18:23:37;8.73;;;5.97;;
59766;SDS011;46248;58.364;25.582;2023-12-20T18:27:00;9.43;;;6.47;;
59766;SDS011;46248;58.364;25.582;2023-12-20T18:30:23;17.08;;;11.38;;
59766;SDS011;46248;58.364;25.582;2023-12-20T18:33:46;17.33;;;10.13;;
59766;SDS011;46248;58.364;25.582;2023-12-20T18:37:11;32.65;;;17.00;;
59766;SDS011;46248;58.364;25.582;2023-12-20T18:40:34;16.80;;;9.25;;
59766;SDS011;46248;58.364;25.582;2023-12-20T18:43:56;10.90;;;5.75;;
59766;SDS011;46248;58.364;25.582;2023-12-20T18:47:19;13.73;;;6.20;;
59766;SDS011;46248;58.364;25.582;2023-12-20T18:50:42;8.27;;;4.30;;
59766;SDS011;46248;58.364;25.582;2023-12-20T18:54:06;7.07;;;3.33;;
59766;SDS011;46248;58.364;25.582;2023-12-20T18:57:29;11.68;;;4.25;;
59766;SDS011;46248;58.364;25.582;2023-12-20T19:00:53;8.48;;;3.97;;
59766;SDS011;46248;58.364;25.582;2023-12-20T19:04:17;6.32;;;3.08;;
59766;SDS011;46248;58.364;25.582;2023-12-20T19:07:41;8.45;;;3.70;;
59766;SDS011;46248;58.364;25.582;2023-12-20T19:11:06;6.22;;;3.33;;
59766;SDS011;46248;58.364;25.582;2023-12-20T19:14:29;5.57;;;3.10;;
59766;SDS011;46248;58.364;25.582;2023-12-20T19:17:52;6.65;;;3.78;;
59766;SDS011;46248;58.364;25.582;2023-12-20T19:21:15;9.93;;;3.25;;
59766;SDS011;46248;58.364;25.582;2023-12-20T19:24:38;7.70;;;2.83;;
59766;SDS011;46248;58.364;25.582;2023-12-20T19:28:02;6.00;;;3.30;;
59766;SDS011;46248;58.364;25.582;2023-12-20T19:31:26;6.25;;;2.83;;
59766;SDS011;46248;58.364;25.582;2023-12-20T19:34:49;6.28;;;2.75;;
59766;SDS011;46248;58.364;25.582;2023-12-20T19:38:12;7.40;;;2.35;;
59766;SDS011;46248;58.364;25.582;2023-12-20T19:41:35;6.18;;;2.30;;
59766;SDS011;46248;58.364;25.582;2023-12-20T19:45:01;9.40;;;2.40;;
59766;SDS011;46248;58.364;25.582;2023-12-20T19:48:23;5.90;;;2.30;;
59766;SDS011;46248;58.364;25.582;2023-12-20T19:51:46;4.13;;;1.95;;
59766;SDS011;46248;58.364;25.582;2023-12-20T19:55:09;4.00;;;2.42;;
59766;SDS011;46248;58.364;25.582;2023-12-20T19:58:32;6.20;;;2.55;;
59766;SDS011;46248;58.364;25.582;2023-12-20T20:01:57;4.57;;;2.15;;
59766;SDS011;46248;58.364;25.582;2023-12-20T20:05:21;4.00;;;1.80;;
59766;SDS011;46248;58.364;25.582;2023-12-20T20:08:46;7.20;;;2.53;;
59766;SDS011;46248;58.364;25.582;2023-12-20T20:12:09;4.18;;;2.00;;